createdAt,value
2018-06-24T00:00:55.628Z,8.27
2018-06-24T00:05:15.657Z,5.43
2018-06-24T00:09:19.198Z,4.80
2018-06-24T00:13:23.576Z,5.50
2018-06-24T00:17:27.114Z,5.63
2018-06-24T00:21:31.838Z,8.17
2018-06-24T00:25:40.954Z,5.27
2018-06-24T00:29:45.343Z,6.17
2018-06-24T00:33:52.159Z,6.53
2018-06-24T00:37:56.052Z,7.97
2018-06-24T00:41:59.310Z,7.03
2018-06-24T00:46:20.891Z,6.20
2018-06-24T00:50:25.774Z,6.50
2018-06-24T00:54:29.474Z,6.50
2018-06-24T00:58:35.001Z,6.57
2018-06-24T01:02:39.237Z,7.97
2018-06-24T01:06:43.773Z,5.90
2018-06-24T01:10:48.158Z,7.17
2018-06-24T01:14:51.735Z,8.10
2018-06-24T01:18:57.538Z,8.03
2018-06-24T01:23:01.086Z,7.03
2018-06-24T01:27:04.908Z,5.73
2018-06-24T01:31:08.466Z,8.30
2018-06-24T01:35:30.487Z,4.67
2018-06-24T01:39:34.031Z,5.67
2018-06-24T01:43:37.551Z,6.90
2018-06-24T01:47:59.749Z,6.00
2018-06-24T01:52:03.832Z,6.87
2018-06-24T01:56:08.483Z,4.80
2018-06-24T02:00:12.083Z,7.00
2018-06-24T02:04:15.925Z,4.73
2018-06-24T02:08:19.578Z,4.30
2018-06-24T02:12:23.795Z,4.23
2018-06-24T02:16:27.545Z,14.00
2018-06-24T02:20:31.176Z,4.50
2018-06-24T02:24:35.542Z,6.73
2018-06-24T02:28:39.139Z,5.97
2018-06-24T02:32:50.240Z,6.77
2018-06-24T02:36:53.785Z,4.47
2018-06-24T02:40:58.441Z,4.87
2018-06-24T02:45:02.097Z,4.73
2018-06-24T02:49:05.846Z,4.73
2018-06-24T02:53:09.572Z,4.90
2018-06-24T02:57:13.640Z,6.33
2018-06-24T03:01:18.581Z,5.87
2018-06-24T03:05:22.848Z,6.27
2018-06-24T03:09:26.983Z,5.47
2018-06-24T03:13:30.642Z,5.63
2018-06-24T03:17:34.152Z,7.90
2018-06-24T03:21:37.749Z,9.17
2018-06-24T03:25:41.227Z,5.60
2018-06-24T03:29:45.100Z,5.10
2018-06-24T03:33:48.654Z,8.97
2018-06-24T03:37:52.187Z,6.73
2018-06-24T03:41:55.802Z,4.30
2018-06-24T03:46:09.339Z,4.90
2018-06-24T03:50:13.025Z,7.80
2018-06-24T03:54:18.747Z,5.30
2018-06-24T03:58:22.344Z,5.83
2018-06-24T04:02:29.271Z,7.20
2018-06-24T04:06:32.822Z,6.03
2018-06-24T04:10:44.188Z,5.33
2018-06-24T04:14:48.637Z,8.07
2018-06-24T04:18:52.194Z,7.03
2018-06-24T04:22:55.788Z,9.27
2018-06-24T04:26:59.756Z,6.30
2018-06-24T04:31:03.330Z,5.50
2018-06-24T04:35:06.902Z,7.73
2018-06-24T04:39:11.259Z,6.10
2018-06-24T04:43:15.194Z,7.00
2018-06-24T04:47:18.807Z,9.33
2018-06-24T04:51:24.892Z,8.23
2018-06-24T04:55:28.535Z,5.90
2018-06-24T04:59:33.234Z,7.30
2018-06-24T05:03:36.928Z,7.97
2018-06-24T05:07:41.078Z,7.57
2018-06-24T05:11:44.623Z,6.17
2018-06-24T05:15:48.553Z,8.30
2018-06-24T05:19:52.038Z,8.63
2018-06-24T05:24:08.442Z,8.90
2018-06-24T05:28:11.966Z,5.57
2018-06-24T05:32:15.897Z,5.70
2018-06-24T05:36:19.620Z,10.77
2018-06-24T05:40:23.666Z,9.50
2018-06-24T05:44:27.275Z,7.53
2018-06-24T05:48:31.173Z,9.07
2018-06-24T05:52:38.217Z,8.70
2018-06-24T05:56:42.477Z,8.87
2018-06-24T06:00:47.810Z,8.97
2018-06-24T06:04:51.572Z,8.20
2018-06-24T06:08:55.192Z,7.33
2018-06-24T06:12:58.915Z,8.83
2018-06-24T06:17:02.668Z,6.97
2018-06-24T06:21:06.682Z,11.03
2018-06-24T06:25:10.884Z,10.13
2018-06-24T06:29:14.556Z,6.67
2018-06-24T06:33:18.403Z,11.90
2018-06-24T06:37:22.343Z,6.27
2018-06-24T06:41:26.050Z,8.53
2018-06-24T06:45:30.090Z,11.80
2018-06-24T06:49:33.418Z,11.23
2018-06-24T06:53:39.185Z,10.53
2018-06-24T06:57:43.070Z,9.60
2018-06-24T07:01:52.076Z,10.70
2018-06-24T07:06:01.275Z,8.13
2018-06-24T07:10:04.953Z,9.03
2018-06-24T07:14:11.922Z,9.93
2018-06-24T07:18:15.477Z,10.97
2018-06-24T07:22:26.289Z,10.03
2018-06-24T07:26:29.625Z,9.13
2018-06-24T07:30:33.178Z,11.63
2018-06-24T07:34:36.782Z,12.00
2018-06-24T07:38:40.437Z,15.90
2018-06-24T07:42:44.462Z,13.83
2018-06-24T07:46:48.002Z,14.37
2018-06-24T07:50:51.564Z,10.80
2018-06-24T07:54:57.433Z,10.87
2018-06-24T07:59:13.084Z,14.00
2018-06-24T08:03:17.780Z,11.87
2018-06-24T08:07:27.390Z,9.23
2018-06-24T08:11:30.997Z,11.63
2018-06-24T08:15:41.990Z,8.27
2018-06-24T08:19:47.318Z,11.80
2018-06-24T08:23:50.882Z,13.40
2018-06-24T08:27:54.557Z,13.23
2018-06-24T08:31:58.394Z,15.30
2018-06-24T08:36:03.084Z,16.37
2018-06-24T08:40:12.894Z,13.37
2018-06-24T08:44:16.570Z,10.70
2018-06-24T08:48:31.668Z,11.00
2018-06-24T08:52:35.712Z,12.30
2018-06-24T08:56:41.770Z,9.20
2018-06-24T09:00:46.737Z,9.80
2018-06-24T09:04:51.627Z,12.30
2018-06-24T09:08:55.438Z,11.70
2018-06-24T09:12:59.321Z,9.03
2018-06-24T09:17:03.071Z,12.80
2018-06-24T09:21:07.801Z,8.33
2018-06-24T09:25:11.520Z,12.47
2018-06-24T09:29:17.662Z,11.67
2018-06-24T09:33:21.279Z,9.03
2018-06-24T09:37:27.090Z,10.07
2018-06-24T09:41:30.766Z,9.13
2018-06-24T09:45:34.420Z,11.73
2018-06-24T09:49:48.362Z,10.47
2018-06-24T09:53:52.346Z,11.53
2018-06-24T09:57:56.100Z,11.47
2018-06-24T10:02:04.596Z,12.10
2018-06-24T10:06:08.636Z,9.90
2018-06-24T10:10:16.399Z,9.83
2018-06-24T10:14:20.099Z,10.93
2018-06-24T10:18:26.284Z,13.63
2018-06-24T10:22:34.892Z,11.57
2018-06-24T10:26:39.506Z,11.30
2018-06-24T10:30:43.090Z,11.60
2018-06-24T10:34:48.717Z,12.20
2018-06-24T10:38:54.973Z,10.03
2018-06-24T10:43:04.167Z,8.63
2018-06-24T10:47:07.715Z,10.10
2018-06-24T10:51:16.428Z,9.30
2018-06-24T10:55:20.004Z,9.63
2018-06-24T10:59:23.831Z,10.57
2018-06-24T11:03:39.662Z,9.63
2018-06-24T11:07:45.357Z,6.73
2018-06-24T11:11:51.045Z,8.17
2018-06-24T11:15:57.078Z,10.53
2018-06-24T11:20:00.708Z,9.03
2018-06-24T11:24:06.218Z,9.83
2018-06-24T11:28:10.279Z,10.87
2018-06-24T11:32:14.627Z,10.37
2018-06-24T11:36:22.942Z,7.30
2018-06-24T11:40:27.387Z,8.00
2018-06-24T11:44:33.324Z,6.80
2018-06-24T11:48:37.599Z,7.80
2018-06-24T11:52:44.106Z,7.70
2018-06-24T11:56:48.168Z,7.17
2018-06-24T12:00:52.093Z,8.53
2018-06-24T12:04:58.063Z,10.27
2018-06-24T12:09:03.595Z,7.00
2018-06-24T12:13:07.793Z,7.43
2018-06-24T12:17:12.515Z,7.13
2018-06-24T12:21:17.887Z,11.27
2018-06-24T12:25:23.398Z,8.20
2018-06-24T12:29:27.840Z,9.33
2018-06-24T12:33:32.790Z,8.60
2018-06-24T12:37:36.289Z,5.83
2018-06-24T12:41:45.965Z,6.60
2018-06-24T12:45:50.050Z,7.47
2018-06-24T12:49:54.981Z,5.83
2018-06-24T12:54:00.177Z,5.03
2018-06-24T12:58:04.622Z,7.40
2018-06-24T13:02:08.599Z,5.47
2018-06-24T13:06:13.648Z,7.03
2018-06-24T13:10:17.906Z,5.63
2018-06-24T13:14:22.145Z,5.73
2018-06-24T13:18:28.991Z,5.40
2018-06-24T13:22:32.974Z,4.63
2018-06-24T13:26:36.967Z,5.83
2018-06-24T13:30:40.930Z,6.63
2018-06-24T13:34:46.903Z,3.97
2018-06-24T13:38:51.048Z,4.43
2018-06-24T13:42:56.818Z,5.97
2018-06-24T13:47:01.110Z,6.47
2018-06-24T13:51:10.856Z,11.57
2018-06-24T13:55:14.878Z,6.43
2018-06-24T13:59:22.701Z,4.73
2018-06-24T14:03:31.341Z,10.03
2018-06-24T14:07:36.050Z,10.23
2018-06-24T14:11:42.105Z,7.07
2018-06-24T14:15:47.665Z,5.57
2018-06-24T14:19:52.354Z,6.57
2018-06-24T14:23:56.754Z,4.17
2018-06-24T14:28:00.786Z,7.30
2018-06-24T14:32:08.640Z,5.57
2018-06-24T14:36:14.347Z,6.30
2018-06-24T14:40:18.650Z,5.40
2018-06-24T14:44:22.232Z,4.53
2018-06-24T14:48:25.943Z,5.03
2018-06-24T14:52:29.531Z,7.47
2018-06-24T14:56:36.881Z,5.07
2018-06-24T15:00:46.270Z,5.50
2018-06-24T15:04:49.876Z,4.93
2018-06-24T15:08:59.924Z,3.20
2018-06-24T15:13:20.443Z,3.63
2018-06-24T15:17:24.031Z,4.10
2018-06-24T15:21:28.799Z,8.37
2018-06-24T15:25:39.474Z,5.37
2018-06-24T15:29:43.421Z,5.73
2018-06-24T15:33:47.099Z,5.00
2018-06-24T15:37:56.640Z,4.40
2018-06-24T15:42:00.370Z,5.50
2018-06-24T15:46:04.792Z,5.70
2018-06-24T15:50:08.568Z,4.63
2018-06-24T15:54:12.638Z,4.03
2018-06-24T15:58:16.422Z,6.60
2018-06-24T16:02:20.139Z,5.60
2018-06-24T16:06:35.971Z,5.23
2018-06-24T16:10:47.644Z,6.10
2018-06-24T16:14:52.652Z,5.70
2018-06-24T16:18:58.338Z,5.07
2018-06-24T16:23:02.113Z,3.90
2018-06-24T16:27:05.446Z,3.60
2018-06-24T16:31:26.836Z,6.87
2018-06-24T16:35:34.215Z,4.67
2018-06-24T16:39:37.757Z,4.50
2018-06-24T16:43:41.558Z,7.07
2018-06-24T16:47:45.206Z,7.67
2018-06-24T16:51:49.068Z,9.03
2018-06-24T16:55:52.771Z,4.90
2018-06-24T16:59:56.143Z,5.03
2018-06-24T17:04:00.887Z,7.20
2018-06-24T17:08:08.807Z,7.40
2018-06-24T17:12:12.802Z,7.00
2018-06-24T17:16:16.426Z,6.30
2018-06-24T17:20:20.022Z,11.43
2018-06-24T17:24:23.613Z,6.63
2018-06-24T17:28:27.373Z,6.40
2018-06-24T17:32:31.612Z,12.40
2018-06-24T17:36:39.218Z,6.50
2018-06-24T17:40:43.088Z,5.13
2018-06-24T17:44:46.647Z,6.43
2018-06-24T17:48:50.355Z,5.27
2018-06-24T17:52:57.876Z,4.63
2018-06-24T17:57:02.476Z,3.57
2018-06-24T18:01:12.143Z,5.40
2018-06-24T18:05:15.775Z,5.77
2018-06-24T18:09:19.333Z,4.70
2018-06-24T18:13:23.653Z,3.97
2018-06-24T18:17:27.206Z,6.33
2018-06-24T18:21:31.193Z,6.57
2018-06-24T18:25:34.819Z,5.50
2018-06-24T18:29:38.366Z,5.10
2018-06-24T18:33:46.051Z,4.00
2018-06-24T18:37:51.103Z,7.77
2018-06-24T18:42:00.286Z,5.23
2018-06-24T18:46:04.993Z,4.60
2018-06-24T18:50:08.562Z,10.23
2018-06-24T18:54:14.668Z,6.33
2018-06-24T18:58:20.897Z,5.77
2018-06-24T19:02:27.926Z,3.97
2018-06-24T19:06:37.524Z,7.37
2018-06-24T19:10:45.089Z,3.67
2018-06-24T19:14:54.690Z,5.63
2018-06-24T19:18:58.457Z,4.20
2018-06-24T19:23:03.808Z,7.60
2018-06-24T19:27:07.589Z,6.63
2018-06-24T19:31:11.297Z,7.17
2018-06-24T19:35:17.760Z,4.83
2018-06-24T19:39:21.583Z,5.93
2018-06-24T19:43:25.312Z,4.20
2018-06-24T19:47:29.059Z,5.43
2018-06-24T19:51:33.032Z,4.60
2018-06-24T19:55:36.704Z,7.03
2018-06-24T19:59:40.644Z,5.27
2018-06-24T20:03:46.123Z,9.70
2018-06-24T20:07:49.987Z,6.63
2018-06-24T20:11:53.808Z,5.00
2018-06-24T20:15:57.999Z,5.90
2018-06-24T20:20:01.851Z,4.03
2018-06-24T20:24:05.921Z,5.90
2018-06-24T20:28:09.488Z,6.87
2018-06-24T20:32:13.126Z,6.87
2018-06-24T20:36:17.467Z,7.17
2018-06-24T20:40:22.032Z,6.07
2018-06-24T20:44:25.779Z,6.43
2018-06-24T20:48:30.317Z,6.57
2018-06-24T20:52:41.129Z,5.77
2018-06-24T20:56:44.951Z,4.97
2018-06-24T21:00:48.638Z,4.57
2018-06-24T21:04:52.463Z,4.90
2018-06-24T21:09:07.675Z,4.83
2018-06-24T21:13:11.713Z,4.93
2018-06-24T21:17:15.428Z,4.20
2018-06-24T21:21:19.150Z,5.80
2018-06-24T21:25:22.723Z,6.03
2018-06-24T21:29:26.530Z,8.50
2018-06-24T21:33:31.136Z,6.00
2018-06-24T21:37:34.715Z,5.17
2018-06-24T21:41:38.294Z,4.23
2018-06-24T21:45:41.870Z,6.00
2018-06-24T21:49:45.400Z,6.07
2018-06-24T21:53:50.018Z,5.77
2018-06-24T21:57:53.586Z,5.50
2018-06-24T22:01:57.288Z,5.80
2018-06-24T22:06:00.939Z,6.00
2018-06-24T22:10:05.335Z,6.00
2018-06-24T22:14:10.918Z,6.53
2018-06-24T22:18:14.542Z,9.57
2018-06-24T22:22:19.226Z,6.00
2018-06-24T22:26:22.806Z,6.10
2018-06-24T22:30:27.606Z,5.83
2018-06-24T22:34:31.343Z,9.73
2018-06-24T22:38:40.361Z,7.33
2018-06-24T22:42:43.954Z,5.90
2018-06-24T22:46:48.571Z,6.33
2018-06-24T22:50:52.123Z,6.63
2018-06-24T22:54:55.716Z,6.87
2018-06-24T22:59:14.727Z,6.53
2018-06-24T23:03:18.355Z,7.90
2018-06-24T23:07:21.966Z,8.40
2018-06-24T23:11:25.503Z,6.87
2018-06-24T23:15:32.602Z,7.53
2018-06-24T23:19:36.364Z,8.17
2018-06-24T23:23:40.940Z,8.03
2018-06-24T23:27:48.546Z,11.27
2018-06-24T23:31:52.380Z,9.43
2018-06-24T23:35:59.671Z,8.83
2018-06-24T23:40:03.502Z,9.50
2018-06-24T23:44:07.049Z,9.63
2018-06-24T23:48:10.655Z,8.83
2018-06-24T23:52:14.182Z,8.50
2018-06-24T23:56:18.117Z,9.50
